Time;durP1;ratioP1;P1;durP2;ratioP2;P2;SDS_P1;SDS_P2;PMS_P1;PMS_P2;Temp;Humidity;BMP_temperature;BMP_pressure;BME280_temperature;BME280_humidity;BME280_pressure;Samples;Min_cycle;Max_cycle;Signal;HPM_P1;HPM_P2
2023/06/20 00:00:32;;;;;;;11.13;8.40;;;;;;;;;;5056272;28;20209;-68
2023/06/20 00:02:58;;;;;;;12.10;8.60;;;;;;;;;;5056147;28;20233;-68
2023/06/20 00:05:24;;;;;;;12.10;8.43;;;;;;;;;;5054947;28;20205;-67
2023/06/20 00:07:49;;;;;;;11.00;7.97;;;;;;;;;;5056227;28;20537;-68
2023/06/20 00:10:16;;;;;;;10.63;8.17;;;;;;;;;;5056256;28;20189;-68
2023/06/20 00:12:41;;;;;;;11.10;8.67;;;;;;;;;;5056166;28;20210;-68
2023/06/20 00:15:08;;;;;;;10.53;8.43;;;;;;;;;;5054873;28;20232;-67
2023/06/20 00:17:34;;;;;;;14.90;8.27;;;;;;;;;;5056773;28;20193;-67
2023/06/20 00:20:05;;;;;;;10.63;8.37;;;;;;;;;;5054820;28;20561;-68
2023/06/20 00:22:34;;;;;;;11.10;9.33;;;;;;;;;;5054504;28;20221;-67
2023/06/20 00:25:01;;;;;;;11.40;8.13;;;;;;;;;;5055932;28;20162;-67
2023/06/20 00:27:27;;;;;;;10.53;8.47;;;;;;;;;;5055852;28;20257;-68
2023/06/20 00:29:52;;;;;;;11.43;7.93;;;;;;;;;;5056619;28;20697;-67
2023/06/20 00:32:19;;;;;;;11.23;8.30;;;;;;;;;;5055851;28;20230;-67
2023/06/20 00:34:44;;;;;;;11.57;8.40;;;;;;;;;;5055691;28;20710;-67
2023/06/20 00:37:10;;;;;;;11.27;7.77;;;;;;;;;;5055677;28;20178;-67
2023/06/20 00:39:36;;;;;;;12.13;8.03;;;;;;;;;;5054347;28;20636;-68
2023/06/20 00:42:04;;;;;;;13.70;8.83;;;;;;;;;;5055518;28;20183;-67
2023/06/20 00:44:30;;;;;;;13.23;9.53;;;;;;;;;;5055380;28;20190;-67
2023/06/20 00:46:56;;;;;;;9.90;8.63;;;;;;;;;;5055421;28;20196;-67
2023/06/20 00:49:22;;;;;;;11.37;8.57;;;;;;;;;;5054092;28;20274;-67
2023/06/20 00:51:49;;;;;;;11.80;8.20;;;;;;;;;;5055359;28;20171;-67
2023/06/20 00:54:14;;;;;;;13.67;8.47;;;;;;;;;;5055237;28;20221;-67
2023/06/20 00:56:42;;;;;;;11.87;8.27;;;;;;;;;;5055197;28;20178;-68
2023/06/20 00:59:08;;;;;;;9.40;7.57;;;;;;;;;;5055325;28;20584;-67
2023/06/20 01:01:34;;;;;;;9.33;7.70;;;;;;;;;;5055280;28;20260;-67
2023/06/20 01:04:00;;;;;;;15.47;7.40;;;;;;;;;;5053823;28;20204;-68
2023/06/20 01:06:42;;;;;;;11.93;8.07;;;;;;;;;;5055120;28;20189;-68
2023/06/20 01:09:14;;;;;;;12.80;8.07;;;;;;;;;;5053796;28;20324;-67
2023/06/20 01:11:46;;;;;;;8.63;7.67;;;;;;;;;;5053671;28;20182;-67
2023/06/20 01:14:28;;;;;;;11.63;8.63;;;;;;;;;;5054919;28;20218;-68
2023/06/20 01:17:00;;;;;;;13.03;7.63;;;;;;;;;;5053649;28;20632;-68
2023/06/20 01:19:43;;;;;;;9.37;7.57;;;;;;;;;;5053586;28;20182;-68
2023/06/20 01:22:13;;;;;;;9.50;7.40;;;;;;;;;;5053688;28;20343;-68
2023/06/20 01:24:48;;;;;;;10.90;8.07;;;;;;;;;;5053556;28;20184;-68
2023/06/20 01:27:15;;;;;;;16.17;10.33;;;;;;;;;;5053510;28;20177;-68
2023/06/20 01:29:47;;;;;;;16.10;8.77;;;;;;;;;;5053306;28;20178;-68
2023/06/20 01:32:16;;;;;;;12.90;8.67;;;;;;;;;;5053196;28;20238;-67
2023/06/20 01:34:46;;;;;;;9.70;8.10;;;;;;;;;;5054593;28;20162;-67
2023/06/20 01:37:16;;;;;;;10.17;7.63;;;;;;;;;;5053216;28;20265;-68
2023/06/20 01:39:45;;;;;;;10.67;7.87;;;;;;;;;;5054519;28;20170;-67
2023/06/20 01:42:12;;;;;;;8.83;7.40;;;;;;;;;;5054427;28;20225;-67
2023/06/20 01:44:38;;;;;;;9.33;7.73;;;;;;;;;;5054478;28;20179;-68
2023/06/20 01:47:06;;;;;;;8.20;7.40;;;;;;;;;;5054606;28;20175;-68
2023/06/20 01:49:33;;;;;;;9.90;7.67;;;;;;;;;;5054308;28;20175;-68
2023/06/20 01:51:59;;;;;;;10.33;7.73;;;;;;;;;;5054367;28;20182;-68
2023/06/20 01:54:28;;;;;;;7.67;6.97;;;;;;;;;;5054221;28;20725;-68
2023/06/20 01:56:54;;;;;;;9.07;7.33;;;;;;;;;;5052970;28;20186;-68
2023/06/20 01:59:21;;;;;;;10.07;7.00;;;;;;;;;;5054139;28;20228;-68
2023/06/20 02:01:49;;;;;;;9.47;7.27;;;;;;;;;;5054477;28;20265;-67
2023/06/20 02:04:17;;;;;;;8.50;7.07;;;;;;;;;;5052777;28;20225;-68
2023/06/20 02:06:43;;;;;;;8.37;6.87;;;;;;;;;;5054016;28;20178;-68
2023/06/20 02:09:09;;;;;;;10.47;7.33;;;;;;;;;;5054025;28;20182;-68
2023/06/20 02:11:36;;;;;;;8.47;6.80;;;;;;;;;;5053889;28;20596;-68
2023/06/20 02:14:02;;;;;;;9.20;7.30;;;;;;;;;;5053875;28;20213;-68
2023/06/20 02:16:29;;;;;;;9.03;6.77;;;;;;;;;;5053472;28;20185;-68
2023/06/20 02:18:55;;;;;;;9.20;6.67;;;;;;;;;;5052573;28;20333;-68
2023/06/20 02:21:23;;;;;;;7.60;6.70;;;;;;;;;;5052476;28;20174;-67
2023/06/20 02:23:50;;;;;;;8.23;6.60;;;;;;;;;;5053872;28;20648;-68
2023/06/20 02:26:17;;;;;;;6.93;6.23;;;;;;;;;;5052348;28;20213;-68
2023/06/20 02:28:49;;;;;;;7.90;6.30;;;;;;;;;;5053537;28;20189;-68
2023/06/20 02:31:16;;;;;;;8.70;7.30;;;;;;;;;;5052294;28;20571;-68
2023/06/20 02:33:43;;;;;;;9.33;6.60;;;;;;;;;;5052081;28;20229;-68
2023/06/20 02:36:10;;;;;;;12.90;6.97;;;;;;;;;;5053546;28;20272;-68
2023/06/20 02:38:36;;;;;;;10.93;7.27;;;;;;;;;;5052158;28;20179;-68
2023/06/20 02:41:02;;;;;;;10.97;8.27;;;;;;;;;;5052152;28;20224;-68
2023/06/20 02:43:29;;;;;;;14.87;8.20;;;;;;;;;;5053336;28;20254;-68
2023/06/20 02:45:57;;;;;;;11.13;8.10;;;;;;;;;;5053718;28;20660;-68
2023/06/20 02:48:27;;;;;;;16.43;9.33;;;;;;;;;;5051972;28;20204;-68
2023/06/20 02:50:59;;;;;;;15.13;8.83;;;;;;;;;;5053186;28;20182;-68
2023/06/20 02:53:37;;;;;;;10.10;7.73;;;;;;;;;;5053404;28;20291;-68
2023/06/20 02:56:09;;;;;;;11.77;7.73;;;;;;;;;;5053323;28;20174;-68
2023/06/20 02:58:36;;;;;;;11.50;8.30;;;;;;;;;;5053158;28;20667;-68
2023/06/20 03:01:02;;;;;;;10.80;7.13;;;;;;;;;;5053346;28;20540;-68
2023/06/20 03:03:30;;;;;;;10.37;6.83;;;;;;;;;;5052975;28;20201;-68
2023/06/20 03:05:57;;;;;;;11.13;6.90;;;;;;;;;;5053092;28;20271;-68
2023/06/20 03:08:24;;;;;;;14.03;7.20;;;;;;;;;;5053350;28;20530;-68
2023/06/20 03:10:51;;;;;;;12.83;7.00;;;;;;;;;;5052871;28;20549;-68
2023/06/20 03:13:17;;;;;;;12.43;6.97;;;;;;;;;;5052771;28;20218;-68
2023/06/20 03:15:43;;;;;;;6.50;5.77;;;;;;;;;;5053145;28;20178;-68
2023/06/20 03:18:11;;;;;;;9.50;6.30;;;;;;;;;;5052875;28;20675;-68
2023/06/20 03:20:37;;;;;;;7.43;6.23;;;;;;;;;;5053271;28;20175;-69
2023/06/20 03:23:03;;;;;;;13.00;6.07;;;;;;;;;;5051339;28;20217;-68
2023/06/20 03:25:29;;;;;;;8.47;6.17;;;;;;;;;;5053074;28;20551;-68
2023/06/20 03:27:55;;;;;;;6.60;5.97;;;;;;;;;;5055066;28;20185;-69
2023/06/20 03:30:21;;;;;;;8.40;6.03;;;;;;;;;;5057032;28;20174;-68
2023/06/20 03:32:47;;;;;;;7.73;5.67;;;;;;;;;;5057125;28;20222;-68
2023/06/20 03:35:13;;;;;;;9.43;6.50;;;;;;;;;;5057278;28;20175;-68
2023/06/20 03:37:39;;;;;;;7.10;6.20;;;;;;;;;;5056808;28;20206;-68
2023/06/20 03:40:05;;;;;;;8.40;6.33;;;;;;;;;;5056821;28;20594;-68
2023/06/20 03:42:32;;;;;;;14.43;7.53;;;;;;;;;;5056668;28;20198;-68
2023/06/20 03:44:58;;;;;;;7.73;6.50;;;;;;;;;;5055488;28;20269;-68
2023/06/20 03:47:24;;;;;;;11.37;7.10;;;;;;;;;;5056694;28;20178;-68
2023/06/20 03:49:50;;;;;;;12.07;6.70;;;;;;;;;;5056647;28;20250;-68
2023/06/20 03:52:16;;;;;;;10.63;7.30;;;;;;;;;;5056433;28;20644;-68
2023/06/20 03:54:42;;;;;;;9.33;7.40;;;;;;;;;;5057102;28;20269;-67
2023/06/20 03:57:08;;;;;;;14.40;11.53;;;;;;;;;;5055119;28;20186;-68
2023/06/20 03:59:34;;;;;;;10.00;6.87;;;;;;;;;;5056435;28;20174;-68
2023/06/20 04:02:00;;;;;;;12.10;7.13;;;;;;;;;;5056630;28;20258;-68
2023/06/20 04:04:26;;;;;;;9.60;7.43;;;;;;;;;;5056325;28;20278;-68
2023/06/20 04:06:52;;;;;;;9.70;8.00;;;;;;;;;;5054958;28;20218;-68
2023/06/20 04:09:18;;;;;;;9.97;8.13;;;;;;;;;;5054890;28;20553;-68
2023/06/20 04:11:45;;;;;;;11.43;8.50;;;;;;;;;;5056307;28;20209;-68
2023/06/20 04:14:11;;;;;;;16.87;9.97;;;;;;;;;;5055957;28;20210;-68
2023/06/20 04:16:37;;;;;;;17.13;9.90;;;;;;;;;;5056308;28;20174;-68
2023/06/20 04:19:03;;;;;;;14.17;8.97;;;;;;;;;;5056026;28;20213;-68
2023/06/20 04:21:32;;;;;;;17.63;9.57;;;;;;;;;;5056242;28;20179;-68
2023/06/20 04:23:58;;;;;;;13.70;9.33;;;;;;;;;;5055874;28;20218;-68
2023/06/20 04:26:24;;;;;;;15.17;9.53;;;;;;;;;;5054637;28;20190;-69
2023/06/20 04:28:50;;;;;;;15.70;8.90;;;;;;;;;;5055859;28;20683;-68
2023/06/20 04:31:16;;;;;;;26.97;9.50;;;;;;;;;;5056042;28;20218;-67
2023/06/20 04:33:45;;;;;;;20.17;8.73;;;;;;;;;;5054300;28;20224;-68
2023/06/20 04:36:14;;;;;;;14.03;9.23;;;;;;;;;;5055708;28;20174;-67
2023/06/20 04:38:40;;;;;;;10.77;9.07;;;;;;;;;;5055321;28;20198;-68
2023/06/20 04:41:06;;;;;;;11.93;9.30;;;;;;;;;;5055682;28;20633;-67
2023/06/20 04:43:32;;;;;;;12.97;9.30;;;;;;;;;;5055516;28;20224;-68
2023/06/20 04:45:58;;;;;;;12.33;8.70;;;;;;;;;;5055560;28;20186;-68
2023/06/20 04:48:35;;;;;;;18.57;9.37;;;;;;;;;;5054343;28;20182;-67
2023/06/20 04:51:01;;;;;;;13.87;8.80;;;;;;;;;;5055575;28;20174;-67
2023/06/20 04:53:27;;;;;;;16.17;9.50;;;;;;;;;;5055189;28;20293;-67
2023/06/20 04:55:53;;;;;;;15.13;8.20;;;;;;;;;;5055507;28;20179;-67
2023/06/20 04:58:20;;;;;;;11.50;7.97;;;;;;;;;;5055252;28;20185;-68
2023/06/20 05:00:46;;;;;;;19.10;9.23;;;;;;;;;;5053919;28;20548;-67
2023/06/20 05:03:11;;;;;;;13.47;8.23;;;;;;;;;;5055120;28;20202;-68
2023/06/20 05:05:37;;;;;;;13.23;8.60;;;;;;;;;;5055808;28;20652;-68
2023/06/20 05:08:03;;;;;;;14.97;8.40;;;;;;;;;;5055868;28;20186;-68
2023/06/20 05:10:29;;;;;;;18.97;8.00;;;;;;;;;;5053714;28;20607;-68
2023/06/20 05:12:55;;;;;;;20.03;7.50;;;;;;;;;;5054933;28;20707;-68
2023/06/20 05:15:24;;;;;;;14.27;8.40;;;;;;;;;;5055106;28;20175;-68
2023/06/20 05:17:51;;;;;;;16.47;8.17;;;;;;;;;;5054816;28;20674;-68
2023/06/20 05:20:17;;;;;;;18.30;8.10;;;;;;;;;;5053459;28;20178;-68
2023/06/20 05:22:43;;;;;;;18.47;8.57;;;;;;;;;;5054627;28;20647;-68
2023/06/20 05:25:09;;;;;;;27.13;8.60;;;;;;;;;;5054956;28;20171;-68
2023/06/20 05:27:35;;;;;;;17.97;7.97;;;;;;;;;;5054616;28;20174;-69
2023/06/20 05:30:01;;;;;;;18.07;8.73;;;;;;;;;;5054550;28;20204;-68
2023/06/20 05:32:27;;;;;;;19.10;8.37;;;;;;;;;;5054343;28;20202;-69
2023/06/20 05:34:53;;;;;;;13.33;7.80;;;;;;;;;;5054509;28;20180;-68
2023/06/20 05:37:19;;;;;;;16.67;8.97;;;;;;;;;;5054524;28;20265;-68
2023/06/20 05:39:45;;;;;;;12.77;7.40;;;;;;;;;;5054281;28;20663;-68
2023/06/20 05:42:11;;;;;;;17.37;7.53;;;;;;;;;;5052934;28;20179;-68
2023/06/20 05:44:37;;;;;;;15.63;7.77;;;;;;;;;;5054620;28;20254;-68
2023/06/20 05:47:06;;;;;;;20.00;8.77;;;;;;;;;;5052979;28;20178;-68
2023/06/20 05:49:33;;;;;;;20.10;12.37;;;;;;;;;;5054322;28;20217;-68
2023/06/20 05:51:59;;;;;;;24.17;12.30;;;;;;;;;;5054273;28;20224;-68
2023/06/20 05:54:25;;;;;;;18.00;11.33;;;;;;;;;;5053983;28;20217;-68
2023/06/20 05:56:52;;;;;;;15.00;10.73;;;;;;;;;;5053146;28;20174;-68
2023/06/20 05:59:18;;;;;;;17.47;10.47;;;;;;;;;;5054047;28;20216;-68
2023/06/20 06:01:45;;;;;;;17.63;10.03;;;;;;;;;;5054199;28;20174;-67
2023/06/20 06:04:11;;;;;;;20.07;8.70;;;;;;;;;;5053913;28;20203;-68
2023/06/20 06:06:37;;;;;;;14.93;7.33;;;;;;;;;;5053886;28;20607;-68
2023/06/20 06:09:04;;;;;;;10.33;7.13;;;;;;;;;;5053802;28;20218;-68
2023/06/20 06:11:30;;;;;;;9.57;6.13;;;;;;;;;;5053735;28;20178;-69
2023/06/20 06:13:56;;;;;;;8.60;6.10;;;;;;;;;;5053708;28;20211;-68
2023/06/20 06:16:22;;;;;;;8.70;6.17;;;;;;;;;;5053688;28;20296;-68
2023/06/20 06:18:48;;;;;;;7.30;6.60;;;;;;;;;;5054188;28;20182;-68
2023/06/20 06:21:14;;;;;;;9.73;6.53;;;;;;;;;;5053518;28;20257;-68
2023/06/20 06:23:40;;;;;;;10.93;6.47;;;;;;;;;;5053562;28;20697;-68
2023/06/20 06:26:07;;;;;;;11.20;6.93;;;;;;;;;;5054262;28;20194;-68
2023/06/20 06:28:33;;;;;;;13.37;6.97;;;;;;;;;;5053415;28;20559;-68
2023/06/20 06:31:00;;;;;;;10.07;6.50;;;;;;;;;;5052198;28;20186;-67
2023/06/20 06:33:27;;;;;;;15.73;6.97;;;;;;;;;;5052010;28;20742;-67
2023/06/20 06:35:55;;;;;;;11.00;6.40;;;;;;;;;;5053377;28;20181;-67
2023/06/20 06:38:21;;;;;;;11.10;6.30;;;;;;;;;;5053300;28;20671;-68
2023/06/20 06:40:47;;;;;;;11.20;6.50;;;;;;;;;;5053357;28;20172;-67
2023/06/20 06:43:13;;;;;;;8.53;6.33;;;;;;;;;;5051934;28;20285;-67
2023/06/20 06:45:40;;;;;;;10.07;6.53;;;;;;;;;;5053506;28;20221;-67
2023/06/20 06:48:06;;;;;;;10.03;7.10;;;;;;;;;;5053221;28;20716;-67
2023/06/20 06:50:32;;;;;;;10.33;6.63;;;;;;;;;;5053161;28;20269;-67
2023/06/20 06:52:58;;;;;;;7.57;6.53;;;;;;;;;;5053109;28;20277;-67
2023/06/20 06:55:24;;;;;;;10.13;7.33;;;;;;;;;;5051908;28;20189;-67
2023/06/20 06:57:50;;;;;;;8.73;6.47;;;;;;;;;;5053031;28;20174;-67
2023/06/20 07:00:17;;;;;;;17.03;7.13;;;;;;;;;;5053090;28;20205;-67
2023/06/20 07:02:43;;;;;;;13.87;7.80;;;;;;;;;;5051645;28;20238;-68
2023/06/20 07:05:09;;;;;;;13.70;7.40;;;;;;;;;;5052943;28;20193;-67
2023/06/20 07:07:35;;;;;;;11.73;6.80;;;;;;;;;;5052986;28;20186;-67
2023/06/20 07:10:01;;;;;;;8.67;6.63;;;;;;;;;;5053177;28;20640;-67
2023/06/20 07:12:27;;;;;;;9.43;6.73;;;;;;;;;;5052702;28;20206;-68
2023/06/20 07:14:56;;;;;;;15.40;7.20;;;;;;;;;;5053381;28;20541;-67
2023/06/20 07:17:22;;;;;;;7.60;6.30;;;;;;;;;;5053342;28;20170;-67
2023/06/20 07:19:48;;;;;;;9.23;7.30;;;;;;;;;;5052829;28;20202;-67
2023/06/20 07:22:14;;;;;;;12.10;8.17;;;;;;;;;;5052619;28;20214;-68
2023/06/20 07:24:40;;;;;;;8.27;7.43;;;;;;;;;;5053091;28;20186;-67
2023/06/20 07:27:06;;;;;;;8.73;6.47;;;;;;;;;;5051395;28;20181;-68
2023/06/20 07:29:32;;;;;;;10.47;6.27;;;;;;;;;;5052679;28;20695;-67
2023/06/20 07:31:58;;;;;;;7.53;6.13;;;;;;;;;;5052606;28;20178;-67
2023/06/20 07:34:24;;;;;;;6.73;6.07;;;;;;;;;;5051451;28;20206;-67
2023/06/20 07:36:50;;;;;;;8.47;6.57;;;;;;;;;;5052551;28;20197;-68
2023/06/20 07:39:16;;;;;;;7.43;6.37;;;;;;;;;;5053134;28;20259;-68
2023/06/20 07:41:42;;;;;;;9.93;6.63;;;;;;;;;;5052996;28;20175;-68
2023/06/20 07:44:10;;;;;;;6.93;6.33;;;;;;;;;;5053418;28;20274;-68
2023/06/20 07:46:36;;;;;;;12.93;7.13;;;;;;;;;;5052888;28;20640;-67
2023/06/20 07:49:02;;;;;;;8.93;6.83;;;;;;;;;;5052836;28;20267;-68
2023/06/20 07:51:33;;;;;;;11.33;7.03;;;;;;;;;;5051004;28;20183;-67
2023/06/20 07:53:59;;;;;;;7.30;6.60;;;;;;;;;;5052443;28;20260;-67
2023/06/20 07:56:25;;;;;;;7.73;6.17;;;;;;;;;;5052418;28;20183;-67
2023/06/20 07:58:50;;;;;;;7.77;6.63;;;;;;;;;;5052394;28;20182;-67
2023/06/20 08:01:17;;;;;;;9.03;5.93;;;;;;;;;;5052395;28;20179;-67
2023/06/20 08:03:43;;;;;;;9.67;6.70;;;;;;;;;;5052439;28;20201;-66
2023/06/20 08:06:13;;;;;;;7.40;6.13;;;;;;;;;;5051199;28;20187;-67
2023/06/20 08:08:39;;;;;;;7.33;6.20;;;;;;;;;;5052442;28;20183;-67
2023/06/20 08:11:05;;;;;;;6.37;5.83;;;;;;;;;;5051206;28;20647;-67
2023/06/20 08:13:31;;;;;;;10.17;5.80;;;;;;;;;;5053325;28;20205;-68
2023/06/20 08:15:58;;;;;;;8.63;6.43;;;;;;;;;;5056100;28;20198;-68
2023/06/20 08:18:23;;;;;;;9.93;6.17;;;;;;;;;;5056023;28;20174;-67
2023/06/20 08:20:50;;;;;;;6.67;5.87;;;;;;;;;;5055969;28;20189;-67
2023/06/20 08:23:23;;;;;;;10.03;6.40;;;;;;;;;;5055831;28;20240;-68
2023/06/20 08:25:49;;;;;;;8.80;6.10;;;;;;;;;;5054717;28;20537;-67
2023/06/20 08:28:15;;;;;;;7.70;5.77;;;;;;;;;;5055875;28;20641;-67
2023/06/20 08:30:41;;;;;;;6.90;5.93;;;;;;;;;;5056131;28;20186;-67
2023/06/20 08:33:07;;;;;;;6.27;5.47;;;;;;;;;;5055819;28;20206;-67
2023/06/20 08:35:32;;;;;;;9.77;6.23;;;;;;;;;;5056071;28;20266;-67
2023/06/20 08:37:58;;;;;;;7.80;5.87;;;;;;;;;;5055808;28;20182;-67
2023/06/20 08:40:24;;;;;;;6.57;5.87;;;;;;;;;;5056176;28;20226;-67
2023/06/20 08:42:50;;;;;;;5.73;5.03;;;;;;;;;;5054397;28;20202;-67
2023/06/20 08:45:17;;;;;;;8.37;5.50;;;;;;;;;;5056090;28;20186;-67
2023/06/20 08:47:42;;;;;;;7.43;5.57;;;;;;;;;;5056643;28;20592;-66
2023/06/20 08:50:09;;;;;;;6.07;5.47;;;;;;;;;;5054659;28;20182;-67
2023/06/20 08:52:38;;;;;;;6.80;6.13;;;;;;;;;;5056338;28;20232;-67
2023/06/20 08:55:05;;;;;;;5.73;5.23;;;;;;;;;;5056184;28;20265;-66
2023/06/20 08:57:31;;;;;;;8.30;6.30;;;;;;;;;;5056019;28;20178;-66
2023/06/20 08:59:57;;;;;;;8.47;5.63;;;;;;;;;;5056301;28;20181;-68
2023/06/20 09:02:23;;;;;;;7.70;6.43;;;;;;;;;;5056082;28;20174;-68
2023/06/20 09:05:01;;;;;;;6.83;6.20;;;;;;;;;;5056207;28;20253;-68
2023/06/20 09:07:33;;;;;;;7.43;5.30;;;;;;;;;;5053981;28;20261;-68
2023/06/20 09:10:03;;;;;;;6.40;5.80;;;;;;;;;;5055434;28;20540;-68
2023/06/20 09:12:29;;;;;;;6.53;5.93;;;;;;;;;;5055085;28;20194;-67
2023/06/20 09:14:55;;;;;;;8.03;5.53;;;;;;;;;;5053816;28;20182;-67
2023/06/20 09:17:21;;;;;;;7.33;5.93;;;;;;;;;;5054991;28;20609;-67
2023/06/20 09:19:47;;;;;;;5.53;5.03;;;;;;;;;;5053686;28;20186;-67
2023/06/20 09:22:17;;;;;;;6.00;5.27;;;;;;;;;;5054757;28;20175;-68
2023/06/20 09:24:44;;;;;;;6.83;6.23;;;;;;;;;;5054240;28;20285;-67
2023/06/20 09:27:10;;;;;;;6.33;5.77;;;;;;;;;;5054918;28;20686;-68
2023/06/20 09:29:50;;;;;;;8.57;6.33;;;;;;;;;;5053541;28;20179;-67
2023/06/20 09:32:20;;;;;;;6.53;5.83;;;;;;;;;;5054739;28;20165;-68
2023/06/20 09:34:46;;;;;;;6.93;6.23;;;;;;;;;;5054714;28;20182;-68
2023/06/20 09:37:12;;;;;;;9.07;6.77;;;;;;;;;;5054920;28;20177;-67
2023/06/20 09:39:38;;;;;;;9.93;6.13;;;;;;;;;;5053289;28;20178;-67
2023/06/20 09:42:04;;;;;;;6.67;5.90;;;;;;;;;;5054509;28;20223;-68
2023/06/20 09:44:30;;;;;;;7.27;6.03;;;;;;;;;;5054435;28;20206;-67
2023/06/20 09:46:56;;;;;;;10.37;6.40;;;;;;;;;;5054937;28;20197;-68
2023/06/20 09:49:22;;;;;;;7.87;7.10;;;;;;;;;;5054684;28;20183;-67
2023/06/20 09:51:48;;;;;;;7.97;6.67;;;;;;;;;;5054276;28;20207;-68
2023/06/20 09:54:19;;;;;;;7.97;6.80;;;;;;;;;;5052876;28;20210;-68
2023/06/20 09:56:52;;;;;;;15.67;6.13;;;;;;;;;;5084868;22;20229;-65
2023/06/20 09:59:20;;;;;;;6.50;5.80;;;;;;;;;;5073304;28;20161;-65
2023/06/20 10:01:48;;;;;;;12.60;6.50;;;;;;;;;;5075276;28;20173;-65
2023/06/20 10:04:14;;;;;;;7.77;6.97;;;;;;;;;;5074827;28;20208;-64
2023/06/20 10:06:40;;;;;;;14.60;6.17;;;;;;;;;;5074268;28;20198;-66
2023/06/20 10:09:07;;;;;;;6.87;5.30;;;;;;;;;;5073159;28;20186;-66
2023/06/20 10:11:37;;;;;;;8.83;5.70;;;;;;;;;;5073389;28;20201;-65
2023/06/20 10:14:04;;;;;;;12.00;5.83;;;;;;;;;;5074082;28;20659;-65
2023/06/20 10:16:30;;;;;;;5.57;5.07;;;;;;;;;;5075514;28;20194;-65
2023/06/20 10:18:57;;;;;;;6.73;6.13;;;;;;;;;;5073657;28;20201;-65
2023/06/20 10:21:41;;;;;;;13.20;6.37;;;;;;;;;;5073130;28;20174;-65
2023/06/20 10:24:11;;;;;;;9.43;6.80;;;;;;;;;;5072952;28;20185;-66
2023/06/20 10:26:38;;;;;;;9.17;6.40;;;;;;;;;;5073881;28;20208;-66
2023/06/20 10:29:04;;;;;;;10.30;6.53;;;;;;;;;;5074110;28;20264;-65
2023/06/20 10:31:50;;;;;;;7.65;6.90;;;;;;;;;;5072548;28;20269;-66
2023/06/20 10:34:36;;;;;;;9.10;6.25;;;;;;;;;;5073522;28;20209;-66
2023/06/20 10:37:18;;;;;;;8.37;7.57;;;;;;;;;;5073325;28;20679;-66
2023/06/20 10:39:55;;;;;;;6.28;5.70;;;;;;;;;;5072329;28;20269;-66
2023/06/20 10:42:39;;;;;;;6.97;5.40;;;;;;;;;;5074141;28;20173;-66
2023/06/20 10:45:21;;;;;;;7.40;4.80;;;;;;;;;;5073610;28;20184;-66
2023/06/20 10:47:48;;;;;;;14.07;6.53;;;;;;;;;;5073481;28;20695;-66
2023/06/20 10:50:14;;;;;;;9.00;6.23;;;;;;;;;;5072150;28;20180;-66
2023/06/20 10:52:40;;;;;;;5.97;5.45;;;;;;;;;;5072091;28;20206;-65
2023/06/20 10:55:13;;;;;;;10.77;5.30;;;;;;;;;;5073716;28;20197;-66
2023/06/20 10:57:48;;;;;;;5.93;5.33;;;;;;;;;;5073650;28;20241;-65
2023/06/20 11:00:18;;;;;;;7.47;5.20;;;;;;;;;;5073423;28;20685;-66
2023/06/20 11:02:54;;;;;;;7.95;5.60;;;;;;;;;;5073353;28;20655;-65
2023/06/20 11:05:23;;;;;;;7.13;6.43;;;;;;;;;;5073610;28;20204;-65
2023/06/20 11:07:59;;;;;;;7.07;5.80;;;;;;;;;;5073568;28;20178;-65
2023/06/20 11:10:34;;;;;;;7.15;5.57;;;;;;;;;;5073449;28;20547;-66
2023/06/20 11:13:02;;;;;;;5.95;5.25;;;;;;;;;;5075172;28;20197;-66
2023/06/20 11:15:29;;;;;;;8.35;5.65;;;;;;;;;;5076486;28;20194;-66
2023/06/20 11:17:55;;;;;;;7.70;5.68;;;;;;;;;;5076338;28;20643;-66
2023/06/20 11:20:23;;;;;;;6.68;5.68;;;;;;;;;;5071911;28;20182;-66
2023/06/20 11:22:49;;;;;;;6.50;5.90;;;;;;;;;;5073403;28;20174;-66
2023/06/20 11:25:25;;;;;;;6.90;5.70;;;;;;;;;;5073144;28;20209;-66
2023/06/20 11:27:52;;;;;;;10.10;5.30;;;;;;;;;;5073269;28;20214;-66
2023/06/20 11:30:25;;;;;;;6.00;5.35;;;;;;;;;;5073258;28;20184;-66
2023/06/20 11:33:01;;;;;;;5.85;5.32;;;;;;;;;;5073040;28;20254;-65
2023/06/20 11:35:47;;;;;;;5.35;4.80;;;;;;;;;;5071769;28;20300;-66
2023/06/20 11:38:14;;;;;;;5.80;4.57;;;;;;;;;;5071901;28;20200;-66
2023/06/20 11:40:41;;;;;;;6.45;5.20;;;;;;;;;;5071684;28;20192;-65
2023/06/20 11:43:07;;;;;;;5.88;5.38;;;;;;;;;;5072877;28;20655;-66
2023/06/20 11:45:34;;;;;;;7.45;5.50;;;;;;;;;;5073009;28;20201;-64
2023/06/20 11:48:10;;;;;;;8.98;4.65;;;;;;;;;;5073736;28;20223;-64
2023/06/20 11:50:36;;;;;;;5.10;4.70;;;;;;;;;;5076981;28;20177;-65
2023/06/20 11:53:03;;;;;;;5.35;4.80;;;;;;;;;;5076695;28;20258;-65
2023/06/20 11:55:48;;;;;;;7.43;4.45;;;;;;;;;;5077184;28;20701;-64
2023/06/20 11:58:14;;;;;;;9.10;5.22;;;;;;;;;;5075859;28;20231;-66
2023/06/20 12:00:40;;;;;;;5.80;5.20;;;;;;;;;;5076859;28;20169;-65
2023/06/20 12:03:10;;;;;;;7.18;4.97;;;;;;;;;;5078189;28;20173;-66
2023/06/20 12:05:37;;;;;;;6.50;5.05;;;;;;;;;;5075739;28;20202;-64
2023/06/20 12:08:03;;;;;;;5.80;5.13;;;;;;;;;;5076504;28;20177;-65
2023/06/20 12:10:29;;;;;;;5.70;5.20;;;;;;;;;;5075265;28;20184;-65
2023/06/20 12:12:56;;;;;;;6.57;5.18;;;;;;;;;;5075459;28;20613;-65
2023/06/20 12:15:22;;;;;;;5.72;5.07;;;;;;;;;;5075027;28;20198;-65
2023/06/20 12:17:48;;;;;;;5.30;4.60;;;;;;;;;;5076907;28;20181;-65
2023/06/20 12:20:14;;;;;;;5.22;4.82;;;;;;;;;;5075444;28;20166;-65
2023/06/20 12:22:40;;;;;;;5.60;5.07;;;;;;;;;;5076758;28;20177;-65
2023/06/20 12:25:06;;;;;;;9.88;5.45;;;;;;;;;;5075016;28;20232;-65
2023/06/20 12:27:33;;;;;;;5.57;5.07;;;;;;;;;;5075013;28;20219;-65
2023/06/20 12:29:59;;;;;;;7.78;4.57;;;;;;;;;;5076250;28;20165;-65
2023/06/20 12:32:25;;;;;;;7.80;4.80;;;;;;;;;;5074731;28;20602;-65
2023/06/20 12:34:51;;;;;;;7.95;4.53;;;;;;;;;;5076482;28;20207;-65
2023/06/20 12:37:17;;;;;;;9.02;5.32;;;;;;;;;;5076247;28;20178;-65
2023/06/20 12:39:43;;;;;;;5.18;4.68;;;;;;;;;;5074727;28;20177;-65
2023/06/20 12:42:09;;;;;;;7.50;5.18;;;;;;;;;;5074471;28;20644;-65
2023/06/20 12:44:35;;;;;;;5.45;4.82;;;;;;;;;;5074566;28;20205;-65
2023/06/20 12:47:01;;;;;;;5.10;4.65;;;;;;;;;;5075976;28;20244;-65
2023/06/20 12:49:27;;;;;;;7.95;4.60;;;;;;;;;;5074921;28;20197;-65
2023/06/20 12:51:53;;;;;;;6.78;3.83;;;;;;;;;;5075712;28;20715;-65
2023/06/20 12:54:19;;;;;;;4.38;3.97;;;;;;;;;;5075654;28;20205;-66
2023/06/20 12:56:45;;;;;;;6.32;4.40;;;;;;;;;;5075317;28;20259;-65
2023/06/20 12:59:11;;;;;;;4.72;4.32;;;;;;;;;;5075575;28;20170;-65
2023/06/20 13:01:38;;;;;;;4.75;4.40;;;;;;;;;;5074488;28;20181;-64
2023/06/20 13:04:04;;;;;;;4.35;4.00;;;;;;;;;;5075793;28;20577;-65
2023/06/20 13:06:30;;;;;;;6.82;4.20;;;;;;;;;;5075529;28;20197;-64
2023/06/20 13:08:56;;;;;;;4.80;4.40;;;;;;;;;;5075529;28;20316;-65
2023/06/20 13:11:22;;;;;;;6.43;4.40;;;;;;;;;;5073976;28;20220;-65
2023/06/20 13:13:48;;;;;;;4.78;4.30;;;;;;;;;;5075073;28;20206;-65
2023/06/20 13:16:15;;;;;;;9.73;4.35;;;;;;;;;;5075346;28;20194;-65
2023/06/20 13:18:41;;;;;;;5.15;4.05;;;;;;;;;;5074017;28;20170;-65
2023/06/20 13:21:07;;;;;;;6.40;4.68;;;;;;;;;;5073862;28;20174;-65
2023/06/20 13:23:33;;;;;;;5.13;4.63;;;;;;;;;;5074982;28;20255;-65
2023/06/20 13:25:59;;;;;;;7.07;5.00;;;;;;;;;;5073571;28;20667;-65
2023/06/20 13:28:25;;;;;;;5.28;4.80;;;;;;;;;;5075001;28;20174;-66
2023/06/20 13:30:52;;;;;;;7.38;4.38;;;;;;;;;;5073618;28;20185;-65
2023/06/20 13:33:18;;;;;;;6.03;4.78;;;;;;;;;;5073425;28;20697;-65
2023/06/20 13:35:44;;;;;;;5.50;4.63;;;;;;;;;;5074679;28;20194;-66
2023/06/20 13:38:10;;;;;;;5.18;4.55;;;;;;;;;;5073517;28;20733;-66
2023/06/20 13:40:36;;;;;;;9.73;5.30;;;;;;;;;;5073323;28;20189;-65
2023/06/20 13:43:06;;;;;;;4.85;4.53;;;;;;;;;;5073407;28;20181;-66
2023/06/20 13:45:33;;;;;;;5.10;4.65;;;;;;;;;;5073473;28;20705;-65
2023/06/20 13:47:59;;;;;;;5.28;4.72;;;;;;;;;;5073726;28;20181;-64
2023/06/20 13:50:25;;;;;;;7.45;4.60;;;;;;;;;;5075612;28;20178;-65
2023/06/20 13:52:52;;;;;;;5.00;4.60;;;;;;;;;;5078003;28;20693;-69
2023/06/20 13:55:19;;;;;;;6.05;4.47;;;;;;;;;;5073690;28;20229;-66
2023/06/20 13:57:46;;;;;;;4.50;4.10;;;;;;;;;;5073398;28;20220;-67
2023/06/20 14:00:13;;;;;;;4.05;3.72;;;;;;;;;;5073299;28;20177;-67
2023/06/20 14:02:42;;;;;;;4.57;4.18;;;;;;;;;;5073289;28;20196;-66
2023/06/20 14:05:08;;;;;;;6.13;4.20;;;;;;;;;;5072920;28;20189;-66
2023/06/20 14:07:34;;;;;;;5.47;4.50;;;;;;;;;;5072985;28;20182;-66
2023/06/20 14:10:01;;;;;;;4.78;4.38;;;;;;;;;;5074351;28;20643;-67
2023/06/20 14:12:27;;;;;;;5.80;4.55;;;;;;;;;;5075167;28;20268;-65
2023/06/20 14:14:53;;;;;;;12.70;4.80;;;;;;;;;;5075620;28;20237;-65
2023/06/20 14:17:19;;;;;;;5.85;5.25;;;;;;;;;;5078008;28;20204;-65
2023/06/20 14:19:45;;;;;;;6.78;5.00;;;;;;;;;;5077214;28;20170;-65
2023/06/20 14:22:11;;;;;;;5.55;4.88;;;;;;;;;;5072990;28;20586;-65
2023/06/20 14:24:37;;;;;;;5.32;4.93;;;;;;;;;;5072683;28;20181;-66
2023/06/20 14:27:03;;;;;;;5.35;4.85;;;;;;;;;;5072447;28;20247;-66
2023/06/20 14:29:31;;;;;;;7.07;4.82;;;;;;;;;;5073955;28;20185;-65
2023/06/20 14:31:57;;;;;;;6.72;5.40;;;;;;;;;;5072405;28;20186;-65
2023/06/20 14:34:23;;;;;;;7.05;4.72;;;;;;;;;;5073905;28;20205;-67
2023/06/20 14:36:49;;;;;;;5.53;4.75;;;;;;;;;;5073724;28;20194;-65
2023/06/20 14:39:15;;;;;;;5.05;4.68;;;;;;;;;;5072417;28;20185;-65